sensor_id;sensor_type;location;lat;lon;timestamp;pressure;altitude;pressure_sealevel;temperature;humidity
5062;BME280;2351;50.812;12.872;2022-09-25T00:02:19;97526.66;;;10.42;88.25
5062;BME280;2351;50.812;12.872;2022-09-25T00:04:50;97521.53;;;10.40;88.34
5062;BME280;2351;50.812;12.872;2022-09-25T00:07:21;97521.66;;;10.38;88.37
5062;BME280;2351;50.812;12.872;2022-09-25T00:09:53;97522.59;;;10.37;88.83
5062;BME280;2351;50.812;12.872;2022-09-25T00:12:25;97525.66;;;10.33;88.52
5062;BME280;2351;50.812;12.872;2022-09-25T00:14:57;97527.78;;;10.29;88.56
5062;BME280;2351;50.812;12.872;2022-09-25T00:17:29;97525.56;;;10.24;88.77
5062;BME280;2351;50.812;12.872;2022-09-25T00:20:01;97530.41;;;10.19;88.88
5062;BME280;2351;50.812;12.872;2022-09-25T00:22:31;97531.66;;;10.15;89.17
5062;BME280;2351;50.812;12.872;2022-09-25T00:25:03;97533.78;;;10.12;89.07
5062;BME280;2351;50.812;12.872;2022-09-25T00:27:35;97535.72;;;10.09;89.50
5062;BME280;2351;50.812;12.872;2022-09-25T00:30:10;97527.78;;;10.09;89.41
5062;BME280;2351;50.812;12.872;2022-09-25T00:32:42;97532.91;;;10.11;89.44
5062;BME280;2351;50.812;12.872;2022-09-25T00:35:13;97529.31;;;10.12;89.56
5062;BME280;2351;50.812;12.872;2022-09-25T00:37:45;97531.25;;;10.10;89.77
5062;BME280;2351;50.812;12.872;2022-09-25T00:40:17;97523.75;;;10.05;89.47
5062;BME280;2351;50.812;12.872;2022-09-25T00:42:48;97530.44;;;10.00;89.74
5062;BME280;2351;50.812;12.872;2022-09-25T00:45:21;97524.97;;;9.91;90.11
5062;BME280;2351;50.812;12.872;2022-09-25T00:47:56;97530.13;;;9.83;89.76
5062;BME280;2351;50.812;12.872;2022-09-25T00:50:33;97525.25;;;9.78;90.42
5062;BME280;2351;50.812;12.872;2022-09-25T00:53:07;97538.63;;;9.77;90.46
5062;BME280;2351;50.812;12.872;2022-09-25T00:55:42;97533.44;;;9.75;90.28
5062;BME280;2351;50.812;12.872;2022-09-25T00:58:18;97526.63;;;9.73;90.72
5062;BME280;2351;50.812;12.872;2022-09-25T01:00:52;97526.63;;;9.73;90.80
5062;BME280;2351;50.812;12.872;2022-09-25T01:03:24;97519.41;;;9.75;90.78
5062;BME280;2351;50.812;12.872;2022-09-25T01:05:56;97521.47;;;9.71;90.84
5062;BME280;2351;50.812;12.872;2022-09-25T01:08:30;97526.22;;;9.68;90.82
5062;BME280;2351;50.812;12.872;2022-09-25T01:11:02;97518.28;;;9.68;90.78
5062;BME280;2351;50.812;12.872;2022-09-25T01:13:34;97520.38;;;9.64;90.82
5062;BME280;2351;50.812;12.872;2022-09-25T01:16:12;97513.28;;;9.64;90.81
5062;BME280;2351;50.812;12.872;2022-09-25T01:18:55;97513.53;;;9.61;90.83
5062;BME280;2351;50.812;12.872;2022-09-25T01:21:36;97513.84;;;9.58;91.24
5062;BME280;2351;50.812;12.872;2022-09-25T01:24:36;97513.41;;;9.53;91.30
5062;BME280;2351;50.812;12.872;2022-09-25T01:27:28;97510.88;;;9.52;91.28
5062;BME280;2351;50.812;12.872;2022-09-25T01:30:05;97513.66;;;9.50;91.42
5062;BME280;2351;50.812;12.872;2022-09-25T01:32:44;97517.28;;;9.49;91.57
5062;BME280;2351;50.812;12.872;2022-09-25T01:35:33;97524.25;;;9.50;91.90
5062;BME280;2351;50.812;12.872;2022-09-25T01:38:14;97512.00;;;9.49;92.02
5062;BME280;2351;50.812;12.872;2022-09-25T01:40:55;97501.69;;;9.46;92.26
5062;BME280;2351;50.812;12.872;2022-09-25T01:43:32;97500.88;;;9.45;91.97
5062;BME280;2351;50.812;12.872;2022-09-25T01:46:11;97505.03;;;9.48;92.17
5062;BME280;2351;50.812;12.872;2022-09-25T01:48:46;97499.06;;;9.46;92.34
5062;BME280;2351;50.812;12.872;2022-09-25T01:51:23;97503.53;;;9.45;92.36
5062;BME280;2351;50.812;12.872;2022-09-25T01:53:59;97505.31;;;9.45;92.28
5062;BME280;2351;50.812;12.872;2022-09-25T01:56:39;97509.78;;;9.44;92.93
5062;BME280;2351;50.812;12.872;2022-09-25T01:59:15;97507.13;;;9.44;92.63
5062;BME280;2351;50.812;12.872;2022-09-25T02:01:52;97504.75;;;9.41;92.85
5062;BME280;2351;50.812;12.872;2022-09-25T02:04:29;97502.13;;;9.41;92.70
5062;BME280;2351;50.812;12.872;2022-09-25T02:07:05;97509.19;;;9.41;93.03
5062;BME280;2351;50.812;12.872;2022-09-25T02:09:43;97513.66;;;9.40;93.27
5062;BME280;2351;50.812;12.872;2022-09-25T02:12:17;97508.38;;;9.40;93.55
5062;BME280;2351;50.812;12.872;2022-09-25T02:14:52;97499.47;;;9.41;93.58
5062;BME280;2351;50.812;12.872;2022-09-25T02:17:28;97504.50;;;9.44;93.45
5062;BME280;2351;50.812;12.872;2022-09-25T02:20:22;97500.88;;;9.45;93.55
5062;BME280;2351;50.812;12.872;2022-09-25T02:23:09;97499.75;;;9.48;93.64
5062;BME280;2351;50.812;12.872;2022-09-25T02:25:45;97498.78;;;9.49;93.68
5062;BME280;2351;50.812;12.872;2022-09-25T02:28:18;97496.16;;;9.49;93.79
5062;BME280;2351;50.812;12.872;2022-09-25T02:30:50;97503.38;;;9.47;94.08
5062;BME280;2351;50.812;12.872;2022-09-25T02:33:25;97502.66;;;9.45;94.02
5062;BME280;2351;50.812;12.872;2022-09-25T02:35:57;97500.88;;;9.45;94.28
5062;BME280;2351;50.812;12.872;2022-09-25T02:38:31;97504.34;;;9.46;94.38
5062;BME280;2351;50.812;12.872;2022-09-25T02:41:10;97503.53;;;9.45;94.39
5062;BME280;2351;50.812;12.872;2022-09-25T02:43:55;97506.16;;;9.45;94.53
5062;BME280;2351;50.812;12.872;2022-09-25T02:46:37;97501.69;;;9.46;94.45
5062;BME280;2351;50.812;12.872;2022-09-25T02:49:18;97502.56;;;9.46;94.33
5062;BME280;2351;50.812;12.872;2022-09-25T02:51:56;97501.69;;;9.46;94.55
5062;BME280;2351;50.812;12.872;2022-09-25T02:54:38;97499.22;;;9.44;94.68
5062;BME280;2351;50.812;12.872;2022-09-25T02:57:28;97506.44;;;9.42;94.71
5062;BME280;2351;50.812;12.872;2022-09-25T03:00:05;97510.03;;;9.41;94.31
5062;BME280;2351;50.812;12.872;2022-09-25T03:02:38;97507.81;;;9.37;94.85
5062;BME280;2351;50.812;12.872;2022-09-25T03:05:13;97508.91;;;9.34;94.63
5062;BME280;2351;50.812;12.872;2022-09-25T03:07:45;97510.00;;;9.31;94.60
5062;BME280;2351;50.812;12.872;2022-09-25T03:10:35;97506.66;;;9.29;95.15
5062;BME280;2351;50.812;12.872;2022-09-25T03:13:15;97520.84;;;9.28;94.90
5062;BME280;2351;50.812;12.872;2022-09-25T03:15:49;97510.53;;;9.25;94.92
5062;BME280;2351;50.812;12.872;2022-09-25T03:18:22;97508.88;;;9.24;95.03
5062;BME280;2351;50.812;12.872;2022-09-25T03:20:56;97501.91;;;9.23;94.98
5062;BME280;2351;50.812;12.872;2022-09-25T03:23:28;97501.38;;;9.19;94.79
5062;BME280;2351;50.812;12.872;2022-09-25T03:25:59;97503.56;;;9.14;94.55
5062;BME280;2351;50.812;12.872;2022-09-25T03:28:31;97497.72;;;9.11;95.00
5062;BME280;2351;50.812;12.872;2022-09-25T03:31:04;97493.97;;;9.13;95.40
5062;BME280;2351;50.812;12.872;2022-09-25T03:33:37;97503.72;;;9.13;95.19
5062;BME280;2351;50.812;12.872;2022-09-25T03:36:12;97501.06;;;9.13;95.09
5062;BME280;2351;50.812;12.872;2022-09-25T03:38:47;97501.78;;;9.15;94.95
5062;BME280;2351;50.812;12.872;2022-09-25T03:41:20;97501.78;;;9.15;95.27
5062;BME280;2351;50.812;12.872;2022-09-25T03:43:52;97498.28;;;9.14;95.01
5062;BME280;2351;50.812;12.872;2022-09-25T03:46:27;97496.59;;;9.13;95.28
5062;BME280;2351;50.812;12.872;2022-09-25T03:49:00;97501.19;;;9.11;95.22
5062;BME280;2351;50.812;12.872;2022-09-25T03:51:33;97498.69;;;9.10;95.22
5062;BME280;2351;50.812;12.872;2022-09-25T03:54:05;97501.59;;;9.07;95.26
5062;BME280;2351;50.812;12.872;2022-09-25T03:56:36;97502.13;;;9.00;95.50
5062;BME280;2351;50.812;12.872;2022-09-25T03:59:08;97506.97;;;8.95;95.55
5062;BME280;2351;50.812;12.872;2022-09-25T04:01:39;97501.97;;;8.92;95.34
5062;BME280;2351;50.812;12.872;2022-09-25T04:04:11;97496.69;;;8.92;95.87
5062;BME280;2351;50.812;12.872;2022-09-25T04:06:44;97493.91;;;8.94;95.87
5062;BME280;2351;50.812;12.872;2022-09-25T04:09:16;97494.72;;;8.94;95.66
5062;BME280;2351;50.812;12.872;2022-09-25T04:11:48;97500.16;;;8.93;95.79
5062;BME280;2351;50.812;12.872;2022-09-25T04:14:20;97509.19;;;8.90;95.78
5062;BME280;2351;50.812;12.872;2022-09-25T04:16:52;97502.50;;;8.86;95.76
5062;BME280;2351;50.812;12.872;2022-09-25T04:19:24;97512.34;;;8.84;95.95
5062;BME280;2351;50.812;12.872;2022-09-25T04:21:57;97508.72;;;8.85;96.34
5062;BME280;2351;50.812;12.872;2022-09-25T04:24:28;97503.47;;;8.85;96.08
5062;BME280;2351;50.812;12.872;2022-09-25T04:27:21;97507.06;;;8.84;96.32
5062;BME280;2351;50.812;12.872;2022-09-25T04:29:53;97511.63;;;8.82;96.37
5062;BME280;2351;50.812;12.872;2022-09-25T04:32:24;97511.50;;;8.83;96.52
5062;BME280;2351;50.812;12.872;2022-09-25T04:35:13;97514.00;;;8.85;96.90
5062;BME280;2351;50.812;12.872;2022-09-25T04:37:46;97511.22;;;8.86;97.18
5062;BME280;2351;50.812;12.872;2022-09-25T04:40:18;97504.88;;;8.89;96.84
5062;BME280;2351;50.812;12.872;2022-09-25T04:42:54;97505.28;;;8.94;97.27
5062;BME280;2351;50.812;12.872;2022-09-25T04:45:26;97497.97;;;8.98;97.53
5062;BME280;2351;50.812;12.872;2022-09-25T04:47:59;97496.84;;;9.00;97.32
5062;BME280;2351;50.812;12.872;2022-09-25T04:50:31;97504.66;;;9.02;97.42
5062;BME280;2351;50.812;12.872;2022-09-25T04:53:04;97503.78;;;9.01;97.44
5062;BME280;2351;50.812;12.872;2022-09-25T04:55:36;97502.81;;;9.02;97.49
5062;BME280;2351;50.812;12.872;2022-09-25T04:58:09;97501.72;;;9.05;97.41
5062;BME280;2351;50.812;12.872;2022-09-25T05:00:40;97498.09;;;9.06;97.65
5062;BME280;2351;50.812;12.872;2022-09-25T05:03:12;97502.41;;;9.07;97.52
5062;BME280;2351;50.812;12.872;2022-09-25T05:05:44;97507.59;;;9.09;97.83
5062;BME280;2351;50.812;12.872;2022-09-25T05:08:17;97513.56;;;9.11;97.91
5062;BME280;2351;50.812;12.872;2022-09-25T05:10:49;97507.16;;;9.13;98.05
5062;BME280;2351;50.812;12.872;2022-09-25T05:13:20;97501.78;;;9.15;98.23
5062;BME280;2351;50.812;12.872;2022-09-25T05:15:53;97512.03;;;9.18;98.69
5062;BME280;2351;50.812;12.872;2022-09-25T05:18:25;97508.31;;;9.21;98.10
5062;BME280;2351;50.812;12.872;2022-09-25T05:20:57;97520.56;;;9.22;98.07
5062;BME280;2351;50.812;12.872;2022-09-25T05:23:34;97522.22;;;9.23;98.32
5062;BME280;2351;50.812;12.872;2022-09-25T05:26:06;97521.25;;;9.24;98.38
5062;BME280;2351;50.812;12.872;2022-09-25T05:28:37;97523.03;;;9.23;98.44
5062;BME280;2351;50.812;12.872;2022-09-25T05:31:09;97518.34;;;9.27;98.47
5062;BME280;2351;50.812;12.872;2022-09-25T05:33:41;97529.59;;;9.29;98.98
5062;BME280;2351;50.812;12.872;2022-09-25T05:36:13;97524.44;;;9.27;98.86
5062;BME280;2351;50.812;12.872;2022-09-25T05:38:48;97524.44;;;9.27;98.65
5062;BME280;2351;50.812;12.872;2022-09-25T05:41:19;97526.13;;;9.28;99.02
5062;BME280;2351;50.812;12.872;2022-09-25T05:43:51;97521.66;;;9.29;98.91
5062;BME280;2351;50.812;12.872;2022-09-25T05:46:24;97522.50;;;9.29;98.93
5062;BME280;2351;50.812;12.872;2022-09-25T05:48:55;97518.91;;;9.30;99.03
5062;BME280;2351;50.812;12.872;2022-09-25T05:51:27;97521.41;;;9.32;99.37
5062;BME280;2351;50.812;12.872;2022-09-25T05:54:00;97520.31;;;9.34;99.17
5062;BME280;2351;50.812;12.872;2022-09-25T05:56:32;97521.84;;;9.37;99.71
5062;BME280;2351;50.812;12.872;2022-09-25T05:59:03;97525.19;;;9.39;99.29
5062;BME280;2351;50.812;12.872;2022-09-25T06:01:35;97518.22;;;9.38;99.63
5062;BME280;2351;50.812;12.872;2022-09-25T06:04:06;97518.06;;;9.40;99.30
5062;BME280;2351;50.812;12.872;2022-09-25T06:06:39;97521.44;;;9.42;99.44
5062;BME280;2351;50.812;12.872;2022-09-25T06:09:12;97519.47;;;9.44;99.88
5062;BME280;2351;50.812;12.872;2022-09-25T06:11:43;97521.16;;;9.45;99.74
5062;BME280;2351;50.812;12.872;2022-09-25T06:14:16;97517.44;;;9.47;100.00
5062;BME280;2351;50.812;12.872;2022-09-25T06:16:49;97518.09;;;9.49;100.00
5062;BME280;2351;50.812;12.872;2022-09-25T06:19:21;97525.75;;;9.53;99.87
5062;BME280;2351;50.812;12.872;2022-09-25T06:21:52;97527.31;;;9.55;100.00
5062;BME280;2351;50.812;12.872;2022-09-25T06:24:25;97518.41;;;9.56;100.00
5062;BME280;2351;50.812;12.872;2022-09-25T06:26:57;97519.78;;;9.60;100.00
5062;BME280;2351;50.812;12.872;2022-09-25T06:29:28;97518.56;;;9.64;100.00
5062;BME280;2351;50.812;12.872;2022-09-25T06:32:00;97517.03;;;9.72;100.00
5062;BME280;2351;50.812;12.872;2022-09-25T06:34:31;97517.75;;;9.84;100.00
5062;BME280;2351;50.812;12.872;2022-09-25T06:37:03;97513.59;;;9.91;100.00
5062;BME280;2351;50.812;12.872;2022-09-25T06:39:36;97509.28;;;10.00;100.00
5062;BME280;2351;50.812;12.872;2022-09-25T06:42:07;97512.88;;;10.08;100.00
5062;BME280;2351;50.812;12.872;2022-09-25T06:44:39;97512.19;;;10.16;100.00
5062;BME280;2351;50.812;12.872;2022-09-25T06:47:10;97514.28;;;10.22;100.00
5062;BME280;2351;50.812;12.872;2022-09-25T06:49:42;97515.09;;;10.33;100.00
5062;BME280;2351;50.812;12.872;2022-09-25T06:52:15;97514.13;;;10.53;100.00
5062;BME280;2351;50.812;12.872;2022-09-25T06:54:48;97514.38;;;10.70;100.00
5062;BME280;2351;50.812;12.872;2022-09-25T06:57:19;97521.44;;;10.79;100.00
5062;BME280;2351;50.812;12.872;2022-09-25T06:59:51;97518.75;;;10.89;100.00
5062;BME280;2351;50.812;12.872;2022-09-25T07:02:23;97519.84;;;10.96;100.00
5062;BME280;2351;50.812;12.872;2022-09-25T07:05:12;97518.97;;;11.06;100.00
5062;BME280;2351;50.812;12.872;2022-09-25T07:07:47;97514.59;;;11.24;100.00
5062;BME280;2351;50.812;12.872;2022-09-25T07:10:20;97518.34;;;11.50;100.00
5062;BME280;2351;50.812;12.872;2022-09-25T07:12:52;97516.78;;;11.57;100.00
5062;BME280;2351;50.812;12.872;2022-09-25T07:15:23;97518.06;;;11.53;100.00
5062;BME280;2351;50.812;12.872;2022-09-25T07:17:55;97520.53;;;11.54;100.00
5062;BME280;2351;50.812;12.872;2022-09-25T07:20:26;97510.16;;;11.61;100.00
5062;BME280;2351;50.812;12.872;2022-09-25T07:22:58;97509.44;;;11.69;100.00
5062;BME280;2351;50.812;12.872;2022-09-25T07:25:34;97513.31;;;11.74;100.00
5062;BME280;2351;50.812;12.872;2022-09-25T07:28:06;97495.28;;;11.78;100.00
5062;BME280;2351;50.812;12.872;2022-09-25T07:30:38;97496.34;;;11.85;100.00
5062;BME280;2351;50.812;12.872;2022-09-25T07:33:10;97501.06;;;11.92;100.00
5062;BME280;2351;50.812;12.872;2022-09-25T07:35:41;97504.22;;;11.95;100.00
5062;BME280;2351;50.812;12.872;2022-09-25T07:38:13;97496.97;;;11.97;100.00
5062;BME280;2351;50.812;12.872;2022-09-25T07:40:46;97492.72;;;12.04;100.00
5062;BME280;2351;50.812;12.872;2022-09-25T07:43:17;97501.66;;;12.22;100.00
5062;BME280;2351;50.812;12.872;2022-09-25T07:45:49;97489.50;;;12.37;100.00
5062;BME280;2351;50.812;12.872;2022-09-25T07:48:22;97495.06;;;12.52;100.00
5062;BME280;2351;50.812;12.872;2022-09-25T07:50:57;97491.19;;;12.64;100.00
5062;BME280;2351;50.812;12.872;2022-09-25T07:53:29;97489.31;;;12.83;100.00
5062;BME280;2351;50.812;12.872;2022-09-25T07:56:02;97489.56;;;12.98;100.00
5062;BME280;2351;50.812;12.872;2022-09-25T07:58:34;97478.63;;;13.09;100.00
5062;BME280;2351;50.812;12.872;2022-09-25T08:01:08;97481.53;;;13.24;100.00
5062;BME280;2351;50.812;12.872;2022-09-25T08:03:41;97489.25;;;13.44;100.00
5062;BME280;2351;50.812;12.872;2022-09-25T08:06:12;97489.53;;;13.33;100.00
5062;BME280;2351;50.812;12.872;2022-09-25T08:08:44;97475.84;;;13.19;98.99
5062;BME280;2351;50.812;12.872;2022-09-25T08:11:17;97487.31;;;12.85;95.78
5062;BME280;2351;50.812;12.872;2022-09-25T08:13:49;97485.69;;;12.58;92.67
5062;BME280;2351;50.812;12.872;2022-09-25T08:16:20;97476.97;;;12.47;93.03
5062;BME280;2351;50.812;12.872;2022-09-25T08:18:52;97481.41;;;12.39;91.99
5062;BME280;2351;50.812;12.872;2022-09-25T08:21:24;97478.06;;;12.37;93.17
5062;BME280;2351;50.812;12.872;2022-09-25T08:23:55;97481.63;;;12.27;91.04
5062;BME280;2351;50.812;12.872;2022-09-25T08:26:28;97486.41;;;12.24;91.78
5062;BME280;2351;50.812;12.872;2022-09-25T08:29:01;97487.78;;;12.28;92.18
5062;BME280;2351;50.812;12.872;2022-09-25T08:31:33;97476.78;;;12.41;92.19
5062;BME280;2351;50.812;12.872;2022-09-25T08:34:05;97483.47;;;12.53;92.89
5062;BME280;2351;50.812;12.872;2022-09-25T08:36:37;97484.31;;;12.80;94.30
5062;BME280;2351;50.812;12.872;2022-09-25T08:39:09;97491.66;;;13.29;96.13
5062;BME280;2351;50.812;12.872;2022-09-25T08:41:45;97489.34;;;14.02;99.49
5062;BME280;2351;50.812;12.872;2022-09-25T08:44:22;97480.88;;;14.40;96.03
5062;BME280;2351;50.812;12.872;2022-09-25T08:46:57;97479.06;;;14.40;94.39
5062;BME280;2351;50.812;12.872;2022-09-25T08:49:52;97472.06;;;14.31;92.72
5062;BME280;2351;50.812;12.872;2022-09-25T08:52:29;97477.91;;;14.10;87.48
5062;BME280;2351;50.812;12.872;2022-09-25T08:55:02;97481.72;;;14.07;88.81
5062;BME280;2351;50.812;12.872;2022-09-25T08:57:36;97477.72;;;14.11;89.53
5062;BME280;2351;50.812;12.872;2022-09-25T09:00:18;97481.88;;;14.22;89.94
5062;BME280;2351;50.812;12.872;2022-09-25T09:02:52;97467.41;;;14.25;87.21
5062;BME280;2351;50.812;12.872;2022-09-25T09:05:35;97468.25;;;14.17;83.68
5062;BME280;2351;50.812;12.872;2022-09-25T09:08:10;97469.41;;;14.31;87.73
5062;BME280;2351;50.812;12.872;2022-09-25T09:10:45;97459.06;;;14.53;89.57
5062;BME280;2351;50.812;12.872;2022-09-25T09:13:24;97456.72;;;14.66;85.55
5062;BME280;2351;50.812;12.872;2022-09-25T09:16:01;97459.78;;;15.03;90.14
5062;BME280;2351;50.812;12.872;2022-09-25T09:18:36;97452.66;;;15.58;89.84
5062;BME280;2351;50.812;12.872;2022-09-25T09:21:13;97449.91;;;15.75;82.65
5062;BME280;2351;50.812;12.872;2022-09-25T09:23:50;97447.09;;;15.68;76.34
5062;BME280;2351;50.812;12.872;2022-09-25T09:26:33;97448.00;;;15.60;72.34
5062;BME280;2351;50.812;12.872;2022-09-25T09:32:13;97440.88;;;15.52;76.38
5062;BME280;2351;50.812;12.872;2022-09-25T09:34:58;97439.00;;;15.61;75.45
5062;BME280;2351;50.812;12.872;2022-09-25T09:37:44;97438.41;;;15.74;77.10
5062;BME280;2351;50.812;12.872;2022-09-25T09:40:30;97432.81;;;15.84;77.23
5062;BME280;2351;50.812;12.872;2022-09-25T09:43:10;97433.81;;;15.91;76.83
5062;BME280;2351;50.812;12.872;2022-09-25T09:45:45;97436.28;;;15.93;76.95
5062;BME280;2351;50.812;12.872;2022-09-25T09:48:27;97435.38;;;15.86;74.41
5062;BME280;2351;50.812;12.872;2022-09-25T09:51:06;97433.38;;;15.79;72.62
5062;BME280;2351;50.812;12.872;2022-09-25T09:53:42;97432.66;;;15.62;70.02
5062;BME280;2351;50.812;12.872;2022-09-25T09:56:19;97431.72;;;15.55;69.71
5062;BME280;2351;50.812;12.872;2022-09-25T09:58:54;97429.03;;;15.55;70.00
5062;BME280;2351;50.812;12.872;2022-09-25T10:01:30;97428.66;;;15.58;70.98
5062;BME280;2351;50.812;12.872;2022-09-25T10:04:08;97421.09;;;15.70;70.71
5062;BME280;2351;50.812;12.872;2022-09-25T10:06:43;97418.19;;;15.57;68.52
5062;BME280;2351;50.812;12.872;2022-09-25T10:09:17;97416.66;;;15.62;69.46
5062;BME280;2351;50.812;12.872;2022-09-25T10:11:55;97415.47;;;15.65;68.57
5062;BME280;2351;50.812;12.872;2022-09-25T10:14:32;97414.28;;;15.68;68.76
5062;BME280;2351;50.812;12.872;2022-09-25T10:17:09;97412.28;;;15.70;67.96
5062;BME280;2351;50.812;12.872;2022-09-25T10:19:47;97417.25;;;15.73;68.66
5062;BME280;2351;50.812;12.872;2022-09-25T10:22:20;97409.53;;;15.78;67.99
5062;BME280;2351;50.812;12.872;2022-09-25T10:24:54;97405.81;;;15.87;67.38
5062;BME280;2351;50.812;12.872;2022-09-25T10:27:30;97398.16;;;16.07;68.55
5062;BME280;2351;50.812;12.872;2022-09-25T10:30:13;97390.06;;;16.16;67.67
5062;BME280;2351;50.812;12.872;2022-09-25T10:32:54;97396.28;;;16.31;67.39
5062;BME280;2351;50.812;12.872;2022-09-25T10:35:27;97397.19;;;16.38;67.48
5062;BME280;2351;50.812;12.872;2022-09-25T10:37:59;97387.72;;;16.51;66.85
5062;BME280;2351;50.812;12.872;2022-09-25T10:40:34;97392.50;;;16.40;66.25
5062;BME280;2351;50.812;12.872;2022-09-25T10:43:15;97390.09;;;16.46;66.17
5062;BME280;2351;50.812;12.872;2022-09-25T10:45:47;97386.06;;;16.35;65.57
5062;BME280;2351;50.812;12.872;2022-09-25T10:48:29;97380.72;;;16.35;65.87
5062;BME280;2351;50.812;12.872;2022-09-25T10:51:19;97384.09;;;16.29;65.70
5062;BME280;2351;50.812;12.872;2022-09-25T10:53:52;97384.19;;;16.35;65.77
5062;BME280;2351;50.812;12.872;2022-09-25T10:56:41;97388.34;;;16.38;64.97
5062;BME280;2351;50.812;12.872;2022-09-25T10:59:19;97385.19;;;16.34;63.93
5062;BME280;2351;50.812;12.872;2022-09-25T11:01:53;97388.72;;;16.35;64.16
5062;BME280;2351;50.812;12.872;2022-09-25T11:04:28;97387.72;;;16.36;64.08
5062;BME280;2351;50.812;12.872;2022-09-25T11:07:02;97378.97;;;16.42;63.54
5062;BME280;2351;50.812;12.872;2022-09-25T11:09:42;97384.69;;;16.39;62.39
5062;BME280;2351;50.812;12.872;2022-09-25T11:12:18;97373.88;;;16.47;62.86
5062;BME280;2351;50.812;12.872;2022-09-25T11:14:54;97373.06;;;16.47;62.28
5062;BME280;2351;50.812;12.872;2022-09-25T11:17:30;97377.47;;;16.39;61.51
5062;BME280;2351;50.812;12.872;2022-09-25T11:20:21;97375.47;;;16.41;62.68
5062;BME280;2351;50.812;12.872;2022-09-25T11:23:21;97375.47;;;16.56;63.51
5062;BME280;2351;50.812;12.872;2022-09-25T11:26:04;97372.44;;;16.60;62.79
5062;BME280;2351;50.812;12.872;2022-09-25T11:28:41;97373.06;;;16.77;63.65
5062;BME280;2351;50.812;12.872;2022-09-25T11:31:22;97363.84;;;16.94;63.58
5062;BME280;2351;50.812;12.872;2022-09-25T11:34:01;97366.25;;;17.04;62.85
5062;BME280;2351;50.812;12.872;2022-09-25T11:36:43;97364.56;;;17.18;62.85
5062;BME280;2351;50.812;12.872;2022-09-25T11:39:21;97360.94;;;17.26;62.32
5062;BME280;2351;50.812;12.872;2022-09-25T11:42:16;97363.94;;;17.38;62.52
5062;BME280;2351;50.812;12.872;2022-09-25T11:44:54;97362.31;;;17.22;61.47
5062;BME280;2351;50.812;12.872;2022-09-25T11:47:32;97355.91;;;17.38;62.39
5062;BME280;2351;50.812;12.872;2022-09-25T11:50:11;97353.28;;;17.66;63.07
5062;BME280;2351;50.812;12.872;2022-09-25T11:52:53;97349.78;;;17.87;62.35
5062;BME280;2351;50.812;12.872;2022-09-25T11:55:43;97351.94;;;17.77;61.18
5062;BME280;2351;50.812;12.872;2022-09-25T11:58:31;97351.91;;;17.49;59.16
5062;BME280;2351;50.812;12.872;2022-09-25T12:01:17;97341.75;;;17.44;59.88
5062;BME280;2351;50.812;12.872;2022-09-25T12:04:13;97335.06;;;17.55;61.21
5062;BME280;2351;50.812;12.872;2022-09-25T12:07:00;97334.03;;;17.77;61.49
5062;BME280;2351;50.812;12.872;2022-09-25T12:09:52;97336.59;;;17.64;60.33
5062;BME280;2351;50.812;12.872;2022-09-25T12:12:38;97334.94;;;17.41;61.03
5062;BME280;2351;50.812;12.872;2022-09-25T12:15:18;97331.19;;;17.57;60.90
5062;BME280;2351;50.812;12.872;2022-09-25T12:18:03;97329.66;;;17.48;60.21
5062;BME280;2351;50.812;12.872;2022-09-25T12:20:43;97331.63;;;17.39;59.96
5062;BME280;2351;50.812;12.872;2022-09-25T12:23:23;97327.13;;;17.40;60.36
5062;BME280;2351;50.812;12.872;2022-09-25T12:26:10;97329.72;;;17.55;60.91
5062;BME280;2351;50.812;12.872;2022-09-25T12:28:54;97322.59;;;17.62;61.40
5062;BME280;2351;50.812;12.872;2022-09-25T12:31:35;97317.22;;;17.84;61.08
5062;BME280;2351;50.812;12.872;2022-09-25T12:34:21;97308.78;;;18.09;61.45
5062;BME280;2351;50.812;12.872;2022-09-25T12:37:03;97316.56;;;18.03;59.87
5062;BME280;2351;50.812;12.872;2022-09-25T12:39:41;97310.59;;;17.80;58.65
5062;BME280;2351;50.812;12.872;2022-09-25T12:42:18;97300.06;;;17.50;59.83
5062;BME280;2351;50.812;12.872;2022-09-25T12:44:56;97307.44;;;17.48;59.74
5062;BME280;2351;50.812;12.872;2022-09-25T12:47:31;97301.94;;;17.56;61.08
5062;BME280;2351;50.812;12.872;2022-09-25T12:50:08;97293.78;;;17.64;60.16
5062;BME280;2351;50.812;12.872;2022-09-25T12:52:44;97291.72;;;17.59;59.92
5062;BME280;2351;50.812;12.872;2022-09-25T12:55:23;97297.63;;;17.55;59.47
5062;BME280;2351;50.812;12.872;2022-09-25T12:58:10;97292.09;;;17.85;60.20
5062;BME280;2351;50.812;12.872;2022-09-25T13:00:51;97291.81;;;17.73;58.83
5062;BME280;2351;50.812;12.872;2022-09-25T13:03:33;97295.03;;;17.61;58.75
5062;BME280;2351;50.812;12.872;2022-09-25T13:06:14;97305.53;;;17.63;58.50
5062;BME280;2351;50.812;12.872;2022-09-25T13:08:51;97300.94;;;17.35;58.19
5062;BME280;2351;50.812;12.872;2022-09-25T13:11:33;97305.22;;;17.29;58.78
5062;BME280;2351;50.812;12.872;2022-09-25T13:14:15;97302.47;;;17.23;59.18
5062;BME280;2351;50.812;12.872;2022-09-25T13:16:50;97314.50;;;17.12;59.25
5062;BME280;2351;50.812;12.872;2022-09-25T13:19:24;97301.88;;;16.91;59.79
5062;BME280;2351;50.812;12.872;2022-09-25T13:22:05;97307.22;;;16.91;59.67
5062;BME280;2351;50.812;12.872;2022-09-25T13:24:44;97299.22;;;16.91;60.02
5062;BME280;2351;50.812;12.872;2022-09-25T13:27:18;97303.13;;;16.73;60.45
5062;BME280;2351;50.812;12.872;2022-09-25T13:29:55;97299.81;;;16.71;60.93
5062;BME280;2351;50.812;12.872;2022-09-25T13:32:30;97294.69;;;16.69;61.00
5062;BME280;2351;50.812;12.872;2022-09-25T13:35:06;97292.00;;;16.69;61.49
5062;BME280;2351;50.812;12.872;2022-09-25T13:37:47;97294.22;;;16.66;61.38
5062;BME280;2351;50.812;12.872;2022-09-25T13:40:21;97294.47;;;16.71;61.43
5062;BME280;2351;50.812;12.872;2022-09-25T13:43:18;97296.50;;;16.69;61.22
5062;BME280;2351;50.812;12.872;2022-09-25T13:46:22;97288.88;;;16.66;61.08
5062;BME280;2351;50.812;12.872;2022-09-25T13:49:33;97295.69;;;16.68;61.13
5062;BME280;2351;50.812;12.872;2022-09-25T13:52:28;97302.78;;;16.61;61.10
5062;BME280;2351;50.812;12.872;2022-09-25T13:55:14;97298.38;;;16.53;61.36
5062;BME280;2351;50.812;12.872;2022-09-25T13:58:01;97296.63;;;16.46;61.87
5062;BME280;2351;50.812;12.872;2022-09-25T14:00:50;97295.91;;;16.52;62.25
5062;BME280;2351;50.812;12.872;2022-09-25T14:03:32;97291.56;;;16.51;61.92
5062;BME280;2351;50.812;12.872;2022-09-25T14:06:10;97293.78;;;16.47;62.03
5062;BME280;2351;50.812;12.872;2022-09-25T14:08:43;97303.56;;;16.55;61.96